BAW28Y EINN-EGSS
Flight info
| Callsign | BAW28Y |
|---|---|
| Flight time | 1h 16m |
| Altitude | 31000 |
| Route | ABAGU3A ABAGU DCT ENJEX DCT AVZAC DCT ICOSA DCT RUHUN DCT YORQI DCT CAWZE P2 SIRIC |
| Aircraft | B463/M-SDFGIRWY/LB1 |
Departure
| Time | 2026-05-08 11:11 |
|---|---|
| Airport | Shannon Airport (EINN) |
Arrival
| Time | 2026-05-08 12:28 |
|---|---|
| Airport | London Stansted Airport (EGSS) |
| Time | Latitude | Longitude | Altitude | Speed | Heading |
|---|---|---|---|---|---|
| 2026-05-08 10:48 | 52.69381 | -8.92280 | 22 ft | 0 kts | 185° |
| 2026-05-08 11:01 | 52.69398 | -8.92278 | 24 ft | 4 kts | 185° |
| 2026-05-08 11:01 | 52.69425 | -8.92274 | 23 ft | 4 kts | 185° |
| 2026-05-08 11:01 | 52.69452 | -8.92269 | 25 ft | 4 kts | 188° |
| 2026-05-08 11:01 | 52.69478 | -8.92261 | 26 ft | 4 kts | 196° |
| 2026-05-08 11:02 | 52.69501 | -8.92242 | 24 ft | 4 kts | 229° |
| 2026-05-08 11:02 | 52.69503 | -8.92213 | 24 ft | 0 kts | 294° |
| 2026-05-08 11:06 | 52.69506 | -8.92225 | 24 ft | 4 kts | 294° |
| 2026-05-08 11:06 | 52.69529 | -8.92308 | 22 ft | 11 kts | 301° |
| 2026-05-08 11:06 | 52.69579 | -8.92408 | 22 ft | 10 kts | 313° |
| 2026-05-08 11:06 | 52.69622 | -8.92480 | 22 ft | 8 kts | 315° |
| 2026-05-08 11:07 | 52.69663 | -8.92544 | 22 ft | 9 kts | 317° |
| 2026-05-08 11:07 | 52.69717 | -8.92631 | 22 ft | 13 kts | 316° |
| 2026-05-08 11:07 | 52.69787 | -8.92743 | 23 ft | 15 kts | 316° |
| 2026-05-08 11:07 | 52.69863 | -8.92868 | 26 ft | 15 kts | 314° |
| 2026-05-08 11:08 | 52.69922 | -8.92967 | 37 ft | 10 kts | 314° |
| 2026-05-08 11:08 | 52.69922 | -8.93081 | 40 ft | 14 kts | 231° |
| 2026-05-08 11:08 | 52.69844 | -8.93239 | 40 ft | 22 kts | 234° |
| 2026-05-08 11:08 | 52.69739 | -8.93474 | 39 ft | 30 kts | 231° |
| 2026-05-08 11:09 | 52.69599 | -8.93771 | 41 ft | 36 kts | 232° |
| 2026-05-08 11:09 | 52.69445 | -8.94090 | 46 ft | 32 kts | 232° |
| 2026-05-08 11:09 | 52.69343 | -8.94224 | 47 ft | 9 kts | 242° |
| 2026-05-08 11:09 | 52.69358 | -8.94259 | 49 ft | 2 kts | 8° |
| 2026-05-08 11:10 | 52.69362 | -8.94256 | 49 ft | 0 kts | 28° |
| 2026-05-08 11:10 | 52.69380 | -8.94226 | 48 ft | 7 kts | 51° |
| 2026-05-08 11:10 | 52.69383 | -8.94220 | 48 ft | 0 kts | 51° |
| 2026-05-08 11:10 | 52.69439 | -8.94101 | 48 ft | 42 kts | 52° |
| 2026-05-08 11:11 | 52.69744 | -8.93453 | 39 ft | 99 kts | 52° |
| 2026-05-08 11:11 | 52.70258 | -8.92374 | 46 ft | 140 kts | 52° |
| 2026-05-08 11:11 | 52.70864 | -8.91028 | 397 ft | 144 kts | 52° |
| 2026-05-08 11:11 | 52.71449 | -8.89649 | 769 ft | 152 kts | 51° |
| 2026-05-08 11:12 | 52.72039 | -8.88287 | 1414 ft | 145 kts | 53° |
| 2026-05-08 11:12 | 52.72673 | -8.86940 | 1837 ft | 154 kts | 52° |
| 2026-05-08 11:12 | 52.73003 | -8.85194 | 2307 ft | 169 kts | 90° |
| 2026-05-08 11:12 | 52.72672 | -8.83266 | 2860 ft | 181 kts | 112° |
| 2026-05-08 11:13 | 52.72112 | -8.81259 | 3313 ft | 204 kts | 114° |
| 2026-05-08 11:13 | 52.71506 | -8.79006 | 3900 ft | 225 kts | 110° |
| 2026-05-08 11:13 | 52.70918 | -8.76463 | 4431 ft | 245 kts | 109° |
| 2026-05-08 11:13 | 52.70352 | -8.73873 | 5408 ft | 243 kts | 109° |
| 2026-05-08 11:14 | 52.69796 | -8.71193 | 6270 ft | 249 kts | 108° |
| 2026-05-08 11:14 | 52.69257 | -8.68456 | 7117 ft | 254 kts | 108° |
| 2026-05-08 11:14 | 52.68737 | -8.65637 | 7888 ft | 263 kts | 107° |
| 2026-05-08 11:14 | 52.68192 | -8.62636 | 8487 ft | 274 kts | 108° |
| 2026-05-08 11:15 | 52.67643 | -8.59619 | 9390 ft | 278 kts | 108° |
| 2026-05-08 11:15 | 52.67082 | -8.56535 | 10162 ft | 283 kts | 108° |
| 2026-05-08 11:15 | 52.66524 | -8.53433 | 10864 ft | 288 kts | 107° |
| 2026-05-08 11:15 | 52.65961 | -8.50250 | 11545 ft | 292 kts | 108° |
| 2026-05-08 11:16 | 52.65390 | -8.47013 | 12213 ft | 296 kts | 108° |
| 2026-05-08 11:16 | 52.64810 | -8.43738 | 12860 ft | 300 kts | 108° |
| 2026-05-08 11:16 | 52.64237 | -8.40411 | 13501 ft | 303 kts | 108° |
| 2026-05-08 11:16 | 52.63641 | -8.37055 | 13726 ft | 306 kts | 109° |
| 2026-05-08 11:17 | 52.63020 | -8.33689 | 14173 ft | 307 kts | 109° |
| 2026-05-08 11:17 | 52.62403 | -8.30311 | 14686 ft | 310 kts | 109° |
| 2026-05-08 11:17 | 52.61789 | -8.26894 | 15174 ft | 313 kts | 109° |
| 2026-05-08 11:17 | 52.61169 | -8.23448 | 15675 ft | 316 kts | 110° |
| 2026-05-08 11:18 | 52.60528 | -8.19976 | 16164 ft | 319 kts | 110° |
| 2026-05-08 11:18 | 52.59884 | -8.16466 | 16613 ft | 322 kts | 110° |
| 2026-05-08 11:18 | 52.59242 | -8.12970 | 17054 ft | 324 kts | 110° |
| 2026-05-08 11:18 | 52.58592 | -8.09406 | 17483 ft | 327 kts | 110° |
| 2026-05-08 11:19 | 52.57942 | -8.05805 | 17901 ft | 329 kts | 110° |
| 2026-05-08 11:19 | 52.57279 | -8.02183 | 18299 ft | 332 kts | 111° |
| 2026-05-08 11:19 | 52.56603 | -7.98554 | 18635 ft | 333 kts | 110° |
| 2026-05-08 11:19 | 52.55931 | -7.94893 | 18954 ft | 335 kts | 110° |
| 2026-05-08 11:20 | 52.55250 | -7.91204 | 19270 ft | 337 kts | 111° |
| 2026-05-08 11:20 | 52.54555 | -7.87504 | 19563 ft | 339 kts | 111° |
| 2026-05-08 11:20 | 52.53854 | -7.83783 | 19867 ft | 341 kts | 111° |
| 2026-05-08 11:20 | 52.53156 | -7.80062 | 20147 ft | 343 kts | 111° |
| 2026-05-08 11:21 | 52.52460 | -7.76321 | 20432 ft | 345 kts | 111° |
| 2026-05-08 11:21 | 52.51758 | -7.72546 | 20710 ft | 347 kts | 111° |
| 2026-05-08 11:21 | 52.51054 | -7.68735 | 20976 ft | 348 kts | 111° |
| 2026-05-08 11:21 | 52.50341 | -7.64919 | 21251 ft | 350 kts | 112° |
| 2026-05-08 11:22 | 52.49497 | -7.61217 | 21515 ft | 349 kts | 117° |
| 2026-05-08 11:22 | 52.48538 | -7.57581 | 21788 ft | 350 kts | 119° |
| 2026-05-08 11:22 | 52.47516 | -7.53918 | 22062 ft | 351 kts | 120° |
| 2026-05-08 11:22 | 52.46493 | -7.50268 | 22323 ft | 353 kts | 119° |
| 2026-05-08 11:23 | 52.45475 | -7.46592 | 22537 ft | 356 kts | 119° |
| 2026-05-08 11:23 | 52.44441 | -7.42896 | 22767 ft | 358 kts | 119° |
| 2026-05-08 11:23 | 52.43399 | -7.39172 | 23033 ft | 360 kts | 119° |
| 2026-05-08 11:23 | 52.42375 | -7.35421 | 23284 ft | 362 kts | 118° |
| 2026-05-08 11:24 | 52.41353 | -7.31640 | 23537 ft | 363 kts | 119° |
| 2026-05-08 11:24 | 52.40309 | -7.27847 | 23759 ft | 365 kts | 119° |
| 2026-05-08 11:24 | 52.39260 | -7.24057 | 23965 ft | 366 kts | 119° |
| 2026-05-08 11:24 | 52.38218 | -7.20305 | 24160 ft | 368 kts | 119° |
| 2026-05-08 11:25 | 52.37160 | -7.16484 | 24366 ft | 369 kts | 119° |
| 2026-05-08 11:25 | 52.36096 | -7.12646 | 24559 ft | 371 kts | 119° |
| 2026-05-08 11:25 | 52.35032 | -7.08796 | 24768 ft | 372 kts | 119° |
| 2026-05-08 11:25 | 52.33962 | -7.04926 | 24959 ft | 373 kts | 119° |
| 2026-05-08 11:26 | 52.32890 | -7.01037 | 25148 ft | 375 kts | 119° |
| 2026-05-08 11:26 | 52.31815 | -6.97142 | 25317 ft | 376 kts | 119° |
| 2026-05-08 11:26 | 52.30740 | -6.93253 | 25528 ft | 376 kts | 119° |
| 2026-05-08 11:26 | 52.29660 | -6.89334 | 25691 ft | 379 kts | 119° |
| 2026-05-08 11:27 | 52.28572 | -6.85409 | 25862 ft | 380 kts | 119° |
| 2026-05-08 11:27 | 52.27847 | -6.82807 | 25982 ft | 381 kts | 120° |
| 2026-05-08 11:27 | 52.26746 | -6.78861 | 26154 ft | 382 kts | 120° |
| 2026-05-08 11:27 | 52.25642 | -6.74910 | 26326 ft | 383 kts | 120° |
| 2026-05-08 11:28 | 52.24535 | -6.70944 | 26504 ft | 384 kts | 120° |
| 2026-05-08 11:28 | 52.23425 | -6.66970 | 26673 ft | 386 kts | 120° |
| 2026-05-08 11:28 | 52.21950 | -6.61683 | 26891 ft | 387 kts | 120° |
| 2026-05-08 11:28 | 52.20832 | -6.57676 | 27053 ft | 389 kts | 120° |
| 2026-05-08 11:29 | 52.20074 | -6.54954 | 27163 ft | 389 kts | 120° |
| 2026-05-08 11:29 | 52.18952 | -6.50937 | 27321 ft | 390 kts | 120° |
| 2026-05-08 11:29 | 52.17816 | -6.46966 | 27490 ft | 391 kts | 120° |
| 2026-05-08 11:29 | 52.16657 | -6.42946 | 27646 ft | 393 kts | 120° |
| 2026-05-08 11:30 | 52.15503 | -6.38896 | 27779 ft | 394 kts | 120° |
| 2026-05-08 11:30 | 52.14356 | -6.34843 | 27916 ft | 396 kts | 120° |
| 2026-05-08 11:30 | 52.13201 | -6.30751 | 28059 ft | 397 kts | 120° |
| 2026-05-08 11:30 | 52.12049 | -6.26668 | 28207 ft | 398 kts | 120° |
| 2026-05-08 11:31 | 52.10884 | -6.22577 | 28362 ft | 398 kts | 120° |
| 2026-05-08 11:31 | 52.09715 | -6.18484 | 28506 ft | 399 kts | 120° |
| 2026-05-08 11:31 | 52.08546 | -6.14381 | 28635 ft | 400 kts | 120° |
| 2026-05-08 11:31 | 52.07363 | -6.10278 | 28773 ft | 401 kts | 120° |
| 2026-05-08 11:32 | 52.06163 | -6.06175 | 28903 ft | 402 kts | 120° |
| 2026-05-08 11:32 | 52.04994 | -6.02110 | 29031 ft | 403 kts | 120° |
| 2026-05-08 11:32 | 52.03812 | -5.97983 | 29158 ft | 404 kts | 120° |
| 2026-05-08 11:32 | 52.02642 | -5.93823 | 29283 ft | 406 kts | 119° |
| 2026-05-08 11:33 | 52.01479 | -5.89635 | 29402 ft | 406 kts | 120° |
| 2026-05-08 11:33 | 51.99115 | -5.81252 | 29568 ft | 410 kts | 119° |
| 2026-05-08 11:33 | 51.97942 | -5.77052 | 29812 ft | 407 kts | 119° |
| 2026-05-08 11:34 | 51.96773 | -5.72902 | 30132 ft | 402 kts | 120° |
| 2026-05-08 11:34 | 51.95601 | -5.68796 | 30374 ft | 399 kts | 120° |
| 2026-05-08 11:34 | 51.94439 | -5.64737 | 30577 ft | 396 kts | 120° |
| 2026-05-08 11:34 | 51.93281 | -5.60698 | 30772 ft | 394 kts | 120° |
| 2026-05-08 11:35 | 51.92129 | -5.56682 | 30950 ft | 392 kts | 120° |
| 2026-05-08 11:35 | 51.90982 | -5.52687 | 31096 ft | 390 kts | 120° |
| 2026-05-08 11:35 | 51.89836 | -5.48709 | 31216 ft | 390 kts | 120° |
| 2026-05-08 11:36 | 51.87511 | -5.40677 | 31149 ft | 399 kts | 120° |
| 2026-05-08 11:36 | 51.85171 | -5.32444 | 31184 ft | 404 kts | 120° |
| 2026-05-08 11:36 | 51.83989 | -5.28343 | 31406 ft | 400 kts | 120° |
| 2026-05-08 11:37 | 51.82814 | -5.24287 | 31584 ft | 398 kts | 120° |
| 2026-05-08 11:37 | 51.80434 | -5.16132 | 31497 ft | 406 kts | 120° |
| 2026-05-08 11:38 | 51.78136 | -5.07742 | 31694 ft | 409 kts | 113° |
| 2026-05-08 11:38 | 51.77305 | -5.03336 | 31859 ft | 410 kts | 108° |
| 2026-05-08 11:38 | 51.76655 | -4.98906 | 31941 ft | 412 kts | 105° |
| 2026-05-08 11:39 | 51.75563 | -4.89750 | 31873 ft | 420 kts | 104° |
| 2026-05-08 11:39 | 51.75036 | -4.85038 | 31559 ft | 431 kts | 103° |
| 2026-05-08 11:39 | 51.74492 | -4.80227 | 31324 ft | 441 kts | 103° |
| 2026-05-08 11:39 | 51.73933 | -4.75317 | 31154 ft | 448 kts | 103° |
| 2026-05-08 11:40 | 51.73363 | -4.70342 | 31095 ft | 452 kts | 103° |
| 2026-05-08 11:40 | 51.72150 | -4.60343 | 31065 ft | 457 kts | 104° |
| 2026-05-08 11:41 | 51.70905 | -4.50232 | 31048 ft | 461 kts | 103° |
| 2026-05-08 11:41 | 51.69661 | -4.40051 | 31045 ft | 464 kts | 104° |
| 2026-05-08 11:42 | 51.68377 | -4.29904 | 31045 ft | 466 kts | 104° |
| 2026-05-08 11:42 | 51.67106 | -4.19661 | 31042 ft | 466 kts | 103° |
| 2026-05-08 11:43 | 51.65844 | -4.09423 | 31037 ft | 466 kts | 103° |
| 2026-05-08 11:43 | 51.64578 | -3.99198 | 31034 ft | 466 kts | 104° |
| 2026-05-08 11:44 | 51.63241 | -3.88977 | 31038 ft | 466 kts | 104° |
| 2026-05-08 11:44 | 51.61928 | -3.78735 | 31046 ft | 466 kts | 103° |
| 2026-05-08 11:45 | 51.60600 | -3.68533 | 31044 ft | 466 kts | 104° |
| 2026-05-08 11:45 | 51.59374 | -3.58278 | 31055 ft | 467 kts | 99° |
| 2026-05-08 11:46 | 51.58661 | -3.47934 | 31051 ft | 469 kts | 96° |
| 2026-05-08 11:46 | 51.58109 | -3.37452 | 31051 ft | 469 kts | 96° |
| 2026-05-08 11:47 | 51.57529 | -3.27063 | 31043 ft | 460 kts | 96° |
| 2026-05-08 11:47 | 51.56959 | -3.17013 | 31036 ft | 448 kts | 96° |
| 2026-05-08 11:48 | 51.56329 | -3.07198 | 31066 ft | 435 kts | 97° |
| 2026-05-08 11:48 | 51.55709 | -2.97622 | 31069 ft | 427 kts | 96° |
| 2026-05-08 11:49 | 51.55139 | -2.88218 | 31068 ft | 418 kts | 96° |
| 2026-05-08 11:49 | 51.54526 | -2.79030 | 31036 ft | 408 kts | 97° |
| 2026-05-08 11:50 | 51.53974 | -2.70014 | 31030 ft | 405 kts | 96° |
| 2026-05-08 11:50 | 51.53416 | -2.61010 | 31046 ft | 405 kts | 96° |
| 2026-05-08 11:51 | 51.52826 | -2.52004 | 31050 ft | 405 kts | 97° |
| 2026-05-08 11:51 | 51.51809 | -2.43121 | 31060 ft | 404 kts | 109° |
| 2026-05-08 11:52 | 51.49653 | -2.34824 | 30528 ft | 413 kts | 118° |
| 2026-05-08 11:52 | 51.48321 | -2.30713 | 29839 ft | 415 kts | 120° |
| 2026-05-08 11:52 | 51.46945 | -2.26677 | 29353 ft | 410 kts | 120° |
| 2026-05-08 11:52 | 51.45560 | -2.22712 | 28857 ft | 406 kts | 121° |
| 2026-05-08 11:53 | 51.44193 | -2.18783 | 28350 ft | 401 kts | 120° |
| 2026-05-08 11:53 | 51.42845 | -2.14880 | 27761 ft | 400 kts | 120° |
| 2026-05-08 11:53 | 51.41503 | -2.10988 | 27171 ft | 398 kts | 120° |
| 2026-05-08 11:53 | 51.40194 | -2.07124 | 26625 ft | 397 kts | 119° |
| 2026-05-08 11:54 | 51.38924 | -2.03211 | 26078 ft | 395 kts | 116° |
| 2026-05-08 11:54 | 51.37931 | -1.99136 | 25612 ft | 393 kts | 108° |
| 2026-05-08 11:54 | 51.37239 | -1.94851 | 25321 ft | 402 kts | 102° |
| 2026-05-08 11:54 | 51.36744 | -1.90405 | 25074 ft | 408 kts | 97° |
| 2026-05-08 11:55 | 51.36363 | -1.85867 | 24710 ft | 417 kts | 96° |
| 2026-05-08 11:55 | 51.36044 | -1.81218 | 23935 ft | 421 kts | 95° |
| 2026-05-08 11:55 | 51.35747 | -1.76558 | 23192 ft | 419 kts | 95° |
| 2026-05-08 11:55 | 51.35449 | -1.71994 | 22357 ft | 418 kts | 96° |
| 2026-05-08 11:56 | 51.35131 | -1.67407 | 21840 ft | 410 kts | 97° |
| 2026-05-08 11:56 | 51.34799 | -1.62936 | 21367 ft | 401 kts | 97° |
| 2026-05-08 11:56 | 51.34480 | -1.58540 | 20896 ft | 394 kts | 97° |
| 2026-05-08 11:56 | 51.34173 | -1.54223 | 20434 ft | 387 kts | 97° |
| 2026-05-08 11:57 | 51.33875 | -1.49985 | 19984 ft | 380 kts | 98° |
| 2026-05-08 11:57 | 51.33546 | -1.45820 | 19524 ft | 374 kts | 98° |
| 2026-05-08 11:57 | 51.33221 | -1.41724 | 19092 ft | 368 kts | 99° |
| 2026-05-08 11:57 | 51.32893 | -1.37691 | 18664 ft | 363 kts | 99° |
| 2026-05-08 11:58 | 51.32587 | -1.33716 | 18241 ft | 357 kts | 99° |
| 2026-05-08 11:58 | 51.32307 | -1.29849 | 18099 ft | 343 kts | 98° |
| 2026-05-08 11:58 | 51.32021 | -1.26134 | 17923 ft | 331 kts | 99° |
| 2026-05-08 11:59 | 51.31497 | -1.19019 | 17544 ft | 314 kts | 99° |
| 2026-05-08 11:59 | 51.31562 | -1.15558 | 17282 ft | 311 kts | 83° |
| 2026-05-08 11:59 | 51.31969 | -1.12183 | 17043 ft | 307 kts | 81° |
| 2026-05-08 11:59 | 51.32450 | -1.08930 | 16808 ft | 302 kts | 79° |
| 2026-05-08 12:00 | 51.32946 | -1.05688 | 16541 ft | 298 kts | 78° |
| 2026-05-08 12:00 | 51.33435 | -1.02478 | 16268 ft | 299 kts | 78° |
| 2026-05-08 12:00 | 51.33941 | -0.99210 | 16024 ft | 306 kts | 78° |
| 2026-05-08 12:00 | 51.34472 | -0.95887 | 15812 ft | 311 kts | 77° |
| 2026-05-08 12:01 | 51.35000 | -0.92523 | 15627 ft | 313 kts | 78° |
| 2026-05-08 12:01 | 51.35513 | -0.89125 | 15431 ft | 315 kts | 78° |
| 2026-05-08 12:01 | 51.36029 | -0.85715 | 15257 ft | 316 kts | 75° |
| 2026-05-08 12:01 | 51.37055 | -0.82616 | 15037 ft | 320 kts | 48° |
| 2026-05-08 12:02 | 51.38800 | -0.80426 | 14854 ft | 320 kts | 31° |
| 2026-05-08 12:02 | 51.40696 | -0.78540 | 14721 ft | 320 kts | 32° |
| 2026-05-08 12:02 | 51.42552 | -0.76558 | 14593 ft | 321 kts | 34° |
| 2026-05-08 12:02 | 51.44356 | -0.74457 | 14450 ft | 321 kts | 37° |
| 2026-05-08 12:03 | 51.46108 | -0.72243 | 14304 ft | 321 kts | 39° |
| 2026-05-08 12:03 | 51.47815 | -0.69945 | 14156 ft | 321 kts | 41° |
| 2026-05-08 12:03 | 51.49491 | -0.67585 | 14044 ft | 320 kts | 42° |
| 2026-05-08 12:03 | 51.51150 | -0.65199 | 13893 ft | 320 kts | 42° |
| 2026-05-08 12:04 | 51.52793 | -0.62787 | 13730 ft | 320 kts | 43° |
| 2026-05-08 12:04 | 51.54422 | -0.60351 | 13569 ft | 320 kts | 43° |
| 2026-05-08 12:04 | 51.56062 | -0.57932 | 13424 ft | 320 kts | 43° |
| 2026-05-08 12:04 | 51.57705 | -0.55514 | 13302 ft | 319 kts | 43° |
| 2026-05-08 12:05 | 51.59333 | -0.53094 | 13184 ft | 318 kts | 42° |
| 2026-05-08 12:05 | 51.60960 | -0.50688 | 13067 ft | 317 kts | 43° |
| 2026-05-08 12:05 | 51.62563 | -0.48314 | 12936 ft | 317 kts | 43° |
| 2026-05-08 12:05 | 51.64206 | -0.45882 | 12746 ft | 319 kts | 42° |
| 2026-05-08 12:06 | 51.65832 | -0.43484 | 12483 ft | 321 kts | 43° |
| 2026-05-08 12:06 | 51.67477 | -0.41041 | 12246 ft | 322 kts | 43° |
| 2026-05-08 12:06 | 51.69132 | -0.38601 | 11995 ft | 323 kts | 43° |
| 2026-05-08 12:06 | 51.70786 | -0.36163 | 11726 ft | 323 kts | 43° |
| 2026-05-08 12:07 | 51.72448 | -0.33708 | 11456 ft | 324 kts | 43° |
| 2026-05-08 12:07 | 51.74104 | -0.31236 | 11196 ft | 324 kts | 43° |
| 2026-05-08 12:07 | 51.75750 | -0.28747 | 10947 ft | 324 kts | 43° |
| 2026-05-08 12:07 | 51.77404 | -0.26276 | 10709 ft | 323 kts | 43° |
| 2026-05-08 12:08 | 51.79059 | -0.23813 | 10476 ft | 322 kts | 43° |
| 2026-05-08 12:08 | 51.80679 | -0.21365 | 10234 ft | 315 kts | 43° |
| 2026-05-08 12:08 | 51.82266 | -0.18964 | 9937 ft | 308 kts | 43° |
| 2026-05-08 12:08 | 51.83811 | -0.16632 | 9615 ft | 300 kts | 44° |
| 2026-05-08 12:09 | 51.85321 | -0.14355 | 9313 ft | 293 kts | 44° |
| 2026-05-08 12:09 | 51.86794 | -0.12136 | 9026 ft | 287 kts | 44° |
| 2026-05-08 12:09 | 51.88228 | -0.09986 | 8734 ft | 281 kts | 44° |
| 2026-05-08 12:09 | 51.89653 | -0.07854 | 8437 ft | 277 kts | 44° |
| 2026-05-08 12:10 | 51.91065 | -0.05752 | 8139 ft | 273 kts | 44° |
| 2026-05-08 12:10 | 51.92452 | -0.03681 | 7842 ft | 270 kts | 44° |
| 2026-05-08 12:10 | 51.93822 | -0.01630 | 7556 ft | 266 kts | 44° |
| 2026-05-08 12:10 | 51.95174 | 0.00392 | 7305 ft | 262 kts | 44° |
| 2026-05-08 12:11 | 51.96489 | 0.02378 | 7164 ft | 253 kts | 45° |
| 2026-05-08 12:11 | 51.97751 | 0.04300 | 7124 ft | 246 kts | 45° |
| 2026-05-08 12:11 | 51.99117 | 0.05902 | 7103 ft | 242 kts | 21° |
| 2026-05-08 12:11 | 52.00736 | 0.06377 | 7107 ft | 239 kts | 5° |
| 2026-05-08 12:12 | 52.02458 | 0.06573 | 7117 ft | 250 kts | 4° |
| 2026-05-08 12:12 | 52.04209 | 0.06702 | 7122 ft | 260 kts | 3° |
| 2026-05-08 12:12 | 52.06040 | 0.06784 | 7128 ft | 267 kts | 2° |
| 2026-05-08 12:12 | 52.07918 | 0.06826 | 7134 ft | 272 kts | 2° |
| 2026-05-08 12:13 | 52.09818 | 0.06785 | 7120 ft | 272 kts | 351° |
| 2026-05-08 12:13 | 52.11502 | 0.05536 | 7116 ft | 266 kts | 317° |
| 2026-05-08 12:13 | 52.12516 | 0.03108 | 7117 ft | 259 kts | 285° |
| 2026-05-08 12:13 | 52.12633 | 0.00260 | 7123 ft | 251 kts | 254° |
| 2026-05-08 12:14 | 52.11864 | -0.02194 | 7110 ft | 241 kts | 223° |
| 2026-05-08 12:14 | 52.10463 | -0.03541 | 7122 ft | 234 kts | 190° |
| 2026-05-08 12:14 | 52.08862 | -0.03586 | 7125 ft | 230 kts | 174° |
| 2026-05-08 12:14 | 52.07255 | -0.03509 | 7114 ft | 231 kts | 182° |
| 2026-05-08 12:15 | 52.05657 | -0.03834 | 7090 ft | 233 kts | 190° |
| 2026-05-08 12:15 | 52.04061 | -0.04575 | 6829 ft | 242 kts | 198° |
| 2026-05-08 12:15 | 52.02421 | -0.05093 | 6591 ft | 244 kts | 173° |
| 2026-05-08 12:15 | 52.00877 | -0.04010 | 6361 ft | 248 kts | 138° |
| 2026-05-08 12:16 | 51.99961 | -0.01647 | 6207 ft | 253 kts | 107° |
| 2026-05-08 12:16 | 51.99856 | 0.00236 | 6102 ft | 255 kts | 85° |
| 2026-05-08 12:16 | 52.00438 | 0.02920 | 6006 ft | 255 kts | 55° |
| 2026-05-08 12:16 | 52.01792 | 0.04723 | 5964 ft | 255 kts | 23° |
| 2026-05-08 12:17 | 52.03527 | 0.05149 | 5892 ft | 256 kts | 352° |
| 2026-05-08 12:17 | 52.05159 | 0.04091 | 5783 ft | 254 kts | 321° |
| 2026-05-08 12:17 | 52.06226 | 0.01856 | 5674 ft | 252 kts | 289° |
| 2026-05-08 12:17 | 52.06468 | -0.00904 | 5553 ft | 247 kts | 258° |
| 2026-05-08 12:18 | 52.05805 | -0.03399 | 5438 ft | 240 kts | 225° |
| 2026-05-08 12:18 | 52.04446 | -0.04835 | 5325 ft | 233 kts | 193° |
| 2026-05-08 12:18 | 52.02870 | -0.04788 | 5231 ft | 228 kts | 159° |
| 2026-05-08 12:18 | 52.01599 | -0.03309 | 5129 ft | 229 kts | 126° |
| 2026-05-08 12:19 | 52.01062 | -0.00893 | 5105 ft | 233 kts | 92° |
| 2026-05-08 12:19 | 52.01427 | 0.01612 | 5075 ft | 236 kts | 61° |
| 2026-05-08 12:19 | 52.02389 | 0.03762 | 5098 ft | 232 kts | 63° |
| 2026-05-08 12:19 | 52.02673 | 0.06214 | 5126 ft | 220 kts | 104° |
| 2026-05-08 12:20 | 52.01928 | 0.08326 | 5132 ft | 220 kts | 140° |
| 2026-05-08 12:20 | 52.00529 | 0.09330 | 5002 ft | 230 kts | 174° |
| 2026-05-08 12:20 | 51.98922 | 0.08887 | 4740 ft | 244 kts | 202° |
| 2026-05-08 12:20 | 51.97367 | 0.07684 | 4560 ft | 250 kts | 204° |
| 2026-05-08 12:21 | 51.95763 | 0.06531 | 4376 ft | 252 kts | 201° |
| 2026-05-08 12:21 | 51.94139 | 0.05463 | 4176 ft | 251 kts | 199° |
| 2026-05-08 12:21 | 51.92512 | 0.04557 | 3967 ft | 245 kts | 195° |
| 2026-05-08 12:21 | 51.90890 | 0.03788 | 3726 ft | 241 kts | 193° |
| 2026-05-08 12:22 | 51.89281 | 0.03086 | 3462 ft | 238 kts | 192° |
| 2026-05-08 12:22 | 51.87675 | 0.02483 | 3182 ft | 236 kts | 190° |
| 2026-05-08 12:22 | 51.86079 | 0.01890 | 2924 ft | 235 kts | 191° |
| 2026-05-08 12:22 | 51.84513 | 0.01172 | 2704 ft | 233 kts | 196° |
| 2026-05-08 12:23 | 51.82993 | 0.00379 | 2571 ft | 225 kts | 191° |
| 2026-05-08 12:23 | 51.81519 | 0.00516 | 2550 ft | 211 kts | 155° |
| 2026-05-08 12:23 | 51.80432 | 0.01970 | 2536 ft | 200 kts | 128° |
| 2026-05-08 12:23 | 51.79513 | 0.03596 | 2508 ft | 192 kts | 138° |
| 2026-05-08 12:24 | 51.78569 | 0.05058 | 2505 ft | 184 kts | 132° |
| 2026-05-08 12:24 | 51.77925 | 0.06738 | 2511 ft | 171 kts | 99° |
| 2026-05-08 12:24 | 51.78214 | 0.08458 | 2548 ft | 159 kts | 49° |
| 2026-05-08 12:24 | 51.79019 | 0.09634 | 2565 ft | 156 kts | 43° |
| 2026-05-08 12:25 | 51.79864 | 0.10792 | 2449 ft | 161 kts | 42° |
| 2026-05-08 12:25 | 51.80707 | 0.11910 | 2299 ft | 158 kts | 44° |
| 2026-05-08 12:25 | 51.81537 | 0.13070 | 2059 ft | 156 kts | 46° |
| 2026-05-08 12:25 | 51.82318 | 0.14251 | 1862 ft | 152 kts | 46° |
| 2026-05-08 12:26 | 51.83087 | 0.15390 | 1629 ft | 148 kts | 46° |
| 2026-05-08 12:26 | 51.83836 | 0.16498 | 1434 ft | 143 kts | 46° |
| 2026-05-08 12:26 | 51.84561 | 0.17591 | 1235 ft | 142 kts | 47° |
| 2026-05-08 12:26 | 51.85274 | 0.18664 | 1085 ft | 141 kts | 49° |
| 2026-05-08 12:27 | 51.86002 | 0.19746 | 896 ft | 142 kts | 48° |
| 2026-05-08 12:27 | 51.86736 | 0.20841 | 684 ft | 144 kts | 46° |
| 2026-05-08 12:27 | 51.87470 | 0.21937 | 434 ft | 144 kts | 44° |
| 2026-05-08 12:27 | 51.88161 | 0.22968 | 345 ft | 127 kts | 46° |
| 2026-05-08 12:28 | 51.88733 | 0.23832 | 347 ft | 87 kts | 43° |
| 2026-05-08 12:28 | 51.89013 | 0.24270 | 347 ft | 26 kts | 54° |
| 2026-05-08 12:28 | 51.89021 | 0.24343 | 349 ft | 2 kts | 53° |
| 2026-05-08 12:28 | 51.89038 | 0.24375 | 350 ft | 10 kts | 49° |
| 2026-05-08 12:29 | 51.89103 | 0.24545 | 349 ft | 26 kts | 66° |
| 2026-05-08 12:29 | 51.89162 | 0.24776 | 351 ft | 16 kts | 77° |
| 2026-05-08 12:29 | 51.89156 | 0.24907 | 347 ft | 6 kts | 91° |
| 2026-05-08 12:29 | 51.89156 | 0.24923 | 350 ft | 0 kts | 89° |
| 2026-05-08 12:30 | 51.89158 | 0.24952 | 352 ft | 3 kts | 65° |
| 2026-05-08 12:30 | 51.89194 | 0.25016 | 355 ft | 12 kts | 46° |
| 2026-05-08 12:30 | 51.89227 | 0.25180 | 354 ft | 20 kts | 112° |
| 2026-05-08 12:30 | 51.89153 | 0.25328 | 359 ft | 13 kts | 131° |
| 2026-05-08 12:31 | 51.89130 | 0.25419 | 354 ft | 6 kts | 59° |
| 2026-05-08 12:31 | 51.89153 | 0.25451 | 356 ft | 3 kts | 42° |
| 2026-05-08 12:31 | 51.89166 | 0.25470 | 352 ft | 2 kts | 42° |
| 2026-05-08 12:31 | 51.89171 | 0.25477 | 352 ft | 3 kts | 42° |
| 2026-05-08 12:32 | 51.89174 | 0.25483 | 352 ft | 0 kts | 42° |